Time;durP1;ratioP1;P1;durP2;ratioP2;P2;SDS_P1;SDS_P2;PMS_P1;PMS_P2;Temp;Humidity;BMP_temperature;BMP_pressure;BME280_temperature;BME280_humidity;BME280_pressure;Samples;Min_cycle;Max_cycle;Signal;HPM_P1;HPM_P2
2022/09/15 00:00:59;;;;;;;11.18;6.22;;;;;;;18.71;77.93;100108.63;5032024;28;20507;-73
2022/09/15 00:03:25;;;;;;;7.70;6.43;;;;;;;18.72;77.97;100101.66;5031563;28;20025;-74
2022/09/15 00:05:53;;;;;;;6.90;6.18;;;;;;;18.46;77.82;100047.69;5031931;28;20021;-73
2022/09/15 00:08:18;;;;;;;9.10;5.90;;;;;;;18.73;77.69;100098.19;4980743;28;20045;-73
2022/09/15 00:10:53;;;;;;;6.63;5.90;;;;;;;18.52;78.14;100070.34;5031632;28;20483;-74
2022/09/15 00:13:19;;;;;;;8.43;5.45;;;;;;;18.55;77.84;100071.16;5031675;28;20037;-73
2022/09/15 00:15:45;;;;;;;10.00;6.13;;;;;;;18.68;78.03;100099.91;5031715;28;20104;-75
2022/09/15 00:18:11;;;;;;;7.47;6.13;;;;;;;18.65;78.40;100107.78;5031611;28;20403;-72
2022/09/15 00:20:42;;;;;;;7.25;6.03;;;;;;;18.52;78.70;100099.94;5031548;28;20025;-71
2022/09/15 00:23:08;;;;;;;7.53;6.00;;;;;;;18.50;78.99;100099.06;5014045;28;20025;-71
2022/09/15 00:25:33;;;;;;;7.70;5.88;;;;;;;18.38;79.06;100078.19;5031161;28;20561;-71
2022/09/15 00:27:59;;;;;;;7.28;5.80;;;;;;;18.47;79.77;100096.47;5031342;28;20037;-70
2022/09/15 00:30:24;;;;;;;8.70;6.57;;;;;;;18.34;80.05;100092.97;5031498;28;20025;-71
2022/09/15 00:32:50;;;;;;;8.57;6.07;;;;;;;18.37;80.49;100102.59;4979865;28;20049;-76
2022/09/15 00:35:15;;;;;;;8.52;6.47;;;;;;;18.41;80.56;100117.38;5031448;28;20049;-74
2022/09/15 00:37:40;;;;;;;6.55;5.90;;;;;;;18.50;79.88;100117.38;5031784;28;20388;-70
2022/09/15 00:40:06;;;;;;;8.13;6.30;;;;;;;18.49;79.67;100099.97;5031475;28;20031;-70
2022/09/15 00:42:32;;;;;;;8.18;6.07;;;;;;;18.65;79.34;100119.09;5031439;28;20031;-70
2022/09/15 00:45:01;;;;;;;10.10;6.13;;;;;;;18.53;79.80;100119.09;5030983;28;20090;-74
2022/09/15 00:47:32;;;;;;;6.05;5.45;;;;;;;18.44;79.74;100122.59;5030874;28;20109;-73
2022/09/15 00:50:10;;;;;;;6.60;5.95;;;;;;;18.49;79.88;100133.94;5031288;28;20061;-74
2022/09/15 00:52:49;;;;;;;7.32;5.85;;;;;;;18.59;79.65;100129.56;5031215;28;20170;-77
2022/09/15 00:55:19;;;;;;;7.10;5.78;;;;;;;18.65;79.20;100133.91;5030889;28;20191;-72
2022/09/15 00:57:51;;;;;;;8.50;6.28;;;;;;;18.63;79.33;100128.69;5030880;28;20029;-76
2022/09/15 01:00:19;;;;;;;10.13;6.47;;;;;;;18.55;79.43;100115.63;5030901;28;20676;-71
2022/09/15 01:02:47;;;;;;;8.27;6.50;;;;;;;18.61;79.41;100122.59;5030908;28;20037;-73
2022/09/15 01:05:16;;;;;;;7.70;6.60;;;;;;;18.63;79.19;100122.56;5030843;28;20034;-70
2022/09/15 01:07:48;;;;;;;8.98;6.10;;;;;;;18.57;79.33;100108.66;5030816;28;20159;-73
2022/09/15 01:10:22;;;;;;;8.43;6.03;;;;;;;18.51;79.57;100103.44;5030877;28;20518;-71
2022/09/15 01:12:47;;;;;;;8.68;6.65;;;;;;;18.57;79.46;100099.94;5030830;28;20059;-71
2022/09/15 01:15:13;;;;;;;14.43;6.43;;;;;;;18.66;79.11;100097.31;5030874;28;20091;-74
2022/09/15 01:17:50;;;;;;;13.13;6.85;;;;;;;18.60;78.54;100089.47;5030647;28;20021;-75
2022/09/15 01:20:21;;;;;;;7.00;5.88;;;;;;;18.65;78.51;100106.00;5030950;28;20075;-73
2022/09/15 01:22:50;;;;;;;8.00;6.20;;;;;;;18.49;78.88;100096.47;5030640;28;20388;-70
2022/09/15 01:25:40;;;;;;;7.23;5.80;;;;;;;18.38;78.96;100079.06;5030172;28;20502;-71
2022/09/15 01:28:31;;;;;;;10.43;5.90;;;;;;;18.56;79.12;100109.50;5030745;28;20264;-73
2022/09/15 01:31:01;;;;;;;7.60;5.90;;;;;;;18.56;78.80;100099.06;5030583;28;20022;-74
2022/09/15 01:33:38;;;;;;;7.45;5.70;;;;;;;18.63;78.53;100113.00;5030501;28;20518;-70
2022/09/15 01:36:09;;;;;;;7.68;6.28;;;;;;;18.42;78.57;100067.72;5030093;28;20503;-73
2022/09/15 01:38:53;;;;;;;8.98;6.10;;;;;;;18.68;78.28;100105.13;5030784;28;20025;-72
2022/09/15 01:41:43;;;;;;;6.80;6.07;;;;;;;18.69;78.32;100099.03;5030226;28;20029;-74
2022/09/15 01:44:22;;;;;;;7.28;6.10;;;;;;;18.66;78.48;100097.31;5030105;28;20477;-70
2022/09/15 01:46:57;;;;;;;7.93;6.38;;;;;;;18.58;78.46;100097.31;5030415;28;20038;-70
2022/09/15 01:49:28;;;;;;;9.88;6.13;;;;;;;18.25;78.58;100040.75;5030297;28;20036;-72
2022/09/15 01:51:53;;;;;;;7.05;6.22;;;;;;;18.59;78.29;100101.69;5030243;28;20052;-72
2022/09/15 01:54:23;;;;;;;8.60;6.30;;;;;;;18.59;78.52;100096.44;5030039;28;20502;-72
2022/09/15 01:56:48;;;;;;;8.93;6.30;;;;;;;18.68;78.16;100111.25;5030392;28;20479;-72
2022/09/15 01:59:15;;;;;;;6.72;6.03;;;;;;;18.70;77.94;100096.41;5031309;28;20040;-72
2022/09/15 02:01:50;;;;;;;6.93;5.60;;;;;;;18.65;78.30;100105.16;5034094;28;20036;-72
2022/09/15 02:04:20;;;;;;;7.40;6.35;;;;;;;18.45;79.46;100099.97;5034053;28;20038;-75
2022/09/15 02:07:10;;;;;;;9.18;6.63;;;;;;;18.18;80.84;100099.09;5034006;28;20029;-72
2022/09/15 02:10:04;;;;;;;6.85;6.15;;;;;;;18.03;81.93;100107.81;5034171;28;20083;-74
2022/09/15 02:12:41;;;;;;;9.73;6.57;;;;;;;17.93;82.50;100107.78;4933910;29;20052;-70
2022/09/15 02:15:13;;;;;;;7.53;6.68;;;;;;;17.83;82.93;100102.53;4902089;29;20096;-72
2022/09/15 02:17:49;;;;;;;8.35;6.38;;;;;;;17.45;83.88;100050.25;4933832;29;20044;-73
2022/09/15 02:20:24;;;;;;;7.82;6.53;;;;;;;17.66;84.15;100092.06;4934069;29;20043;-70
2022/09/15 02:22:54;;;;;;;7.45;6.47;;;;;;;17.66;84.30;100099.88;4933783;29;20510;-73
2022/09/15 02:25:27;;;;;;;7.82;6.93;;;;;;;17.72;84.49;100115.56;4933861;29;20466;-76
2022/09/15 02:27:58;;;;;;;7.22;6.50;;;;;;;17.67;84.41;100101.63;4934004;29;20110;-73
2022/09/15 02:30:26;;;;;;;7.25;6.57;;;;;;;17.71;84.45;100103.41;4933713;29;20047;-70
2022/09/15 02:32:59;;;;;;;11.48;7.38;;;;;;;17.61;84.03;100081.63;4934015;29;20039;-73
2022/09/15 02:35:28;;;;;;;9.18;7.10;;;;;;;17.84;83.76;100104.28;4933567;29;20094;-70
2022/09/15 02:37:55;;;;;;;8.60;6.72;;;;;;;17.89;83.13;100105.16;4933694;29;20036;-69
2022/09/15 02:40:21;;;;;;;9.05;6.30;;;;;;;17.96;82.60;100106.94;4933561;29;20028;-74
2022/09/15 02:43:00;;;;;;;13.57;7.57;;;;;;;18.01;82.37;100106.97;4917567;29;20051;-71
2022/09/15 02:45:26;;;;;;;7.20;6.40;;;;;;;17.87;81.80;100070.31;4933379;29;20457;-71
2022/09/15 02:47:52;;;;;;;7.70;6.90;;;;;;;17.98;82.09;100104.31;4933643;29;20039;-73
2022/09/15 02:50:19;;;;;;;8.52;7.38;;;;;;;17.91;82.98;100108.66;5017831;28;20037;-72
2022/09/15 02:52:45;;;;;;;8.25;7.35;;;;;;;17.87;83.09;100110.38;5033416;28;20037;-74
2022/09/15 02:55:10;;;;;;;7.93;7.13;;;;;;;17.78;83.47;100105.13;5033165;28;20049;-72
2022/09/15 02:57:36;;;;;;;8.55;7.65;;;;;;;17.74;83.75;100112.09;5033497;28;20025;-75
2022/09/15 03:00:16;;;;;;;9.38;8.02;;;;;;;17.63;84.28;100111.19;5033092;28;20486;-71
2022/09/15 03:02:44;;;;;;;9.10;8.20;;;;;;;17.48;85.26;100119.88;5032401;28;20038;-75
2022/09/15 03:05:11;;;;;;;8.68;7.78;;;;;;;17.46;85.42;100130.31;5032981;28;20021;-71
2022/09/15 03:07:37;;;;;;;9.00;8.10;;;;;;;17.43;85.89;100117.25;5033344;28;20044;-77
2022/09/15 03:10:07;;;;;;;9.27;8.13;;;;;;;17.49;85.70;100120.75;5032854;28;20026;-73
2022/09/15 03:12:56;;;;;;;10.75;8.90;;;;;;;17.51;85.65;100113.78;5032838;28;20115;-72
2022/09/15 03:15:24;;;;;;;10.88;8.32;;;;;;;17.39;86.34;100112.00;5032329;28;20204;-71
2022/09/15 03:17:50;;;;;;;9.15;8.25;;;;;;;17.23;86.85;100104.13;5033078;28;20053;-72
2022/09/15 03:20:24;;;;;;;9.43;8.52;;;;;;;17.16;87.34;100115.41;5032964;28;20026;-70
2022/09/15 03:22:50;;;;;;;10.00;8.57;;;;;;;17.17;87.94;100122.38;5032675;28;20067;-71
2022/09/15 03:25:16;;;;;;;9.90;8.30;;;;;;;17.06;88.23;100103.19;5032357;28;20041;-75
2022/09/15 03:27:42;;;;;;;10.27;8.93;;;;;;;17.09;88.53;100108.44;5032639;28;20025;-73
2022/09/15 03:30:09;;;;;;;17.95;9.30;;;;;;;16.65;89.60;100066.47;5032489;28;20025;-71
2022/09/15 03:32:35;;;;;;;10.05;9.05;;;;;;;16.60;90.61;100091.63;5032698;28;20025;-70
2022/09/15 03:35:00;;;;;;;11.52;9.13;;;;;;;16.59;91.58;100115.09;5032393;28;20033;-71
2022/09/15 03:37:26;;;;;;;10.30;9.13;;;;;;;16.58;91.87;100100.31;5032494;28;20471;-74
2022/09/15 03:39:52;;;;;;;13.15;9.32;;;;;;;16.29;92.31;100060.16;5032445;28;20061;-71
2022/09/15 03:42:18;;;;;;;11.50;9.88;;;;;;;16.43;92.96;100099.31;5030960;28;20087;-73
2022/09/15 03:44:43;;;;;;;10.48;9.38;;;;;;;16.47;93.26;100101.09;5022892;28;20037;-75
2022/09/15 03:47:09;;;;;;;14.63;9.98;;;;;;;16.41;93.96;100108.00;5032437;28;20090;-71
2022/09/15 03:49:34;;;;;;;10.75;8.95;;;;;;;16.47;93.88;100108.03;5032035;28;20387;-70
2022/09/15 03:52:00;;;;;;;13.77;10.23;;;;;;;16.50;93.67;100102.84;5032271;28;20040;-74
2022/09/15 03:54:25;;;;;;;12.05;10.55;;;;;;;16.54;93.38;100093.34;5031887;28;20525;-70
2022/09/15 03:56:51;;;;;;;11.35;10.00;;;;;;;16.61;93.48;100109.00;5031806;28;20549;-72
2022/09/15 03:59:17;;;;;;;11.60;10.48;;;;;;;16.66;93.31;100117.72;5031847;28;20045;-70
2022/09/15 04:01:44;;;;;;;12.85;10.35;;;;;;;16.73;93.33;100113.41;5031810;28;20029;-70
2022/09/15 04:04:10;;;;;;;10.25;9.20;;;;;;;16.84;92.52;100113.47;5032014;28;20033;-70
2022/09/15 04:06:37;;;;;;;11.93;8.80;;;;;;;16.82;92.47;100107.38;5031770;28;20025;-70
2022/09/15 04:09:02;;;;;;;10.60;9.50;;;;;;;16.81;92.63;100114.34;5031555;28;20499;-73
2022/09/15 04:11:28;;;;;;;12.68;9.20;;;;;;;16.84;92.71;100112.63;5031745;28;20025;-70
2022/09/15 04:13:54;;;;;;;9.80;8.80;;;;;;;16.74;93.15;100101.28;5031906;28;20033;-70
2022/09/15 04:16:22;;;;;;;13.55;9.68;;;;;;;16.89;92.53;100116.13;5031293;28;20112;-74
2022/09/15 04:18:48;;;;;;;10.55;9.45;;;;;;;16.94;92.23;100112.69;5031596;28;20029;-70
2022/09/15 04:21:16;;;;;;;16.20;12.35;;;;;;;16.83;91.80;100083.06;5013022;28;20424;-74
2022/09/15 04:23:43;;;;;;;14.65;10.57;;;;;;;16.97;92.01;100111.84;5031482;28;20029;-71
2022/09/15 04:26:16;;;;;;;15.40;10.20;;;;;;;16.91;92.44;100115.28;5031380;28;20156;-73
2022/09/15 04:28:41;;;;;;;14.77;9.73;;;;;;;16.94;92.98;100106.63;5031288;28;20480;-77
2022/09/15 04:31:09;;;;;;;10.20;8.43;;;;;;;16.95;93.24;100114.44;5031385;28;20033;-72
2022/09/15 04:33:37;;;;;;;10.30;8.93;;;;;;;16.74;93.64;100067.38;5029914;28;20124;-73
2022/09/15 04:36:05;;;;;;;12.88;8.85;;;;;;;16.78;93.75;100079.56;5030802;28;20032;-69
2022/09/15 04:38:31;;;;;;;9.93;8.23;;;;;;;16.99;93.40;100104.91;5031237;28;20036;-70
2022/09/15 04:40:57;;;;;;;10.02;8.70;;;;;;;17.06;93.23;100108.41;5030859;28;20021;-70
2022/09/15 04:43:25;;;;;;;9.88;8.55;;;;;;;17.07;93.30;100111.03;5031450;28;20091;-71
2022/09/15 04:45:52;;;;;;;11.25;8.63;;;;;;;16.85;93.80;100083.06;5031046;28;20018;-74
2022/09/15 04:48:17;;;;;;;9.85;8.77;;;;;;;17.05;93.92;100119.72;5030489;28;20094;-73
2022/09/15 04:50:43;;;;;;;10.35;8.35;;;;;;;16.96;94.13;100107.50;5031320;28;20096;-73
2022/09/15 04:53:08;;;;;;;11.73;8.55;;;;;;;16.83;94.11;100085.66;5031468;28;20025;-71
2022/09/15 04:55:34;;;;;;;11.95;8.45;;;;;;;17.05;94.61;100117.13;5031040;28;20060;-74
2022/09/15 04:58:01;;;;;;;9.38;8.45;;;;;;;17.16;94.40;100114.53;5031128;28;20029;-74
2022/09/15 05:00:27;;;;;;;10.50;8.88;;;;;;;17.29;93.74;100124.16;5030837;28;20029;-74
2022/09/15 05:02:53;;;;;;;10.18;8.32;;;;;;;17.34;93.59;100124.19;5018668;28;20034;-73
2022/09/15 05:05:19;;;;;;;11.27;8.60;;;;;;;17.34;93.29;100111.13;5030579;28;20115;-73
2022/09/15 05:07:46;;;;;;;11.07;8.50;;;;;;;17.23;93.50;100095.44;5018333;28;20026;-73
2022/09/15 05:10:12;;;;;;;9.73;8.70;;;;;;;17.44;93.32;100120.72;5010956;28;20397;-72
2022/09/15 05:12:38;;;;;;;13.25;8.48;;;;;;;17.46;93.67;100122.47;5010724;28;20037;-72
2022/09/15 05:15:04;;;;;;;8.88;7.90;;;;;;;17.43;92.97;100099.00;5015845;28;20029;-75
2022/09/15 05:17:31;;;;;;;10.13;9.00;;;;;;;17.59;93.06;100118.16;5048774;28;20036;-73
2022/09/15 05:19:57;;;;;;;9.82;8.80;;;;;;;17.71;92.77;100122.53;5049412;28;20036;-73
2022/09/15 05:22:23;;;;;;;10.82;8.23;;;;;;;17.81;92.37;100114.72;5049395;28;20108;-75
2022/09/15 05:24:48;;;;;;;15.43;9.13;;;;;;;17.96;91.56;100120.00;5049019;28;20129;-73
2022/09/15 05:27:13;;;;;;;11.32;8.30;;;;;;;18.00;91.78;100111.28;5030870;28;20033;-72
2022/09/15 05:29:39;;;;;;;10.93;8.63;;;;;;;18.16;90.83;100121.75;5046826;28;20021;-75
2022/09/15 05:32:04;;;;;;;9.98;8.65;;;;;;;18.25;90.46;100122.59;5037270;28;20071;-74
2022/09/15 05:34:30;;;;;;;9.02;8.15;;;;;;;18.41;89.63;100126.09;5044854;28;20375;-76
2022/09/15 05:36:56;;;;;;;12.77;9.27;;;;;;;18.45;89.47;100124.34;5049480;28;20053;-78
2022/09/15 05:39:21;;;;;;;10.90;9.30;;;;;;;18.54;88.92;100120.84;5049773;28;20063;-78
2022/09/15 05:41:47;;;;;;;10.60;8.68;;;;;;;18.55;88.92;100119.97;5049396;28;20032;-73
2022/09/15 05:44:12;;;;;;;9.90;8.90;;;;;;;18.52;88.58;100107.78;5040424;28;20452;-78
2022/09/15 05:46:38;;;;;;;10.77;9.20;;;;;;;18.66;88.74;100139.13;5042594;28;20387;-80
2022/09/15 05:49:03;;;;;;;10.00;8.73;;;;;;;18.69;89.04;100133.03;5049028;28;20021;-79
2022/09/15 05:51:29;;;;;;;10.13;8.45;;;;;;;18.66;88.51;100104.28;5049174;28;20383;-79
2022/09/15 05:53:55;;;;;;;10.88;8.95;;;;;;;18.94;88.16;100131.28;5049045;28;20116;-78
2022/09/15 05:56:20;;;;;;;14.18;8.23;;;;;;;19.16;86.72;100137.28;5049183;28;20025;-75
2022/09/15 05:58:47;;;;;;;9.32;8.25;;;;;;;19.28;85.96;100139.00;5048918;28;20100;-75
2022/09/15 06:01:22;;;;;;;9.32;8.25;;;;;;;19.35;84.74;100125.00;5049081;28;20017;-75
2022/09/15 06:03:48;;;;;;;9.85;8.05;;;;;;;19.59;84.55;100156.28;4997651;28;20520;-76
2022/09/15 06:06:14;;;;;;;9.10;8.20;;;;;;;19.65;83.30;100135.31;5048845;28;20029;-75
2022/09/15 06:08:45;;;;;;;9.25;7.72;;;;;;;19.78;83.00;100144.84;5031632;28;20483;-75
2022/09/15 06:11:34;;;;;;;8.68;7.38;;;;;;;19.89;82.40;100136.97;5013499;28;20057;-75
2022/09/15 06:14:01;;;;;;;8.75;7.38;;;;;;;20.04;81.84;100141.22;5040575;28;20442;-77
2022/09/15 06:16:31;;;;;;;8.63;7.40;;;;;;;20.18;80.37;100138.50;5049081;28;20044;-76
2022/09/15 06:18:58;;;;;;;9.15;7.10;;;;;;;20.15;79.88;100128.91;5049644;28;20033;-75
2022/09/15 06:21:28;;;;;;;9.73;7.43;;;;;;;20.25;79.86;100144.53;5047925;28;20029;-73
2022/09/15 06:23:58;;;;;;;10.00;7.70;;;;;;;20.25;79.04;100137.56;5049310;28;20080;-74
2022/09/15 06:26:24;;;;;;;9.00;7.88;;;;;;;20.35;78.57;100131.34;5038147;28;20040;-76
2022/09/15 06:28:58;;;;;;;9.40;7.57;;;;;;;20.34;79.13;100119.13;5038384;28;20099;-74
2022/09/15 06:31:26;;;;;;;11.55;7.30;;;;;;;20.49;78.75;100118.13;5030009;28;20482;-74
2022/09/15 06:33:54;;;;;;;8.65;7.68;;;;;;;20.56;77.97;100104.94;5031754;28;20033;-74
2022/09/15 06:36:21;;;;;;;9.80;6.82;;;;;;;20.74;77.73;100106.56;5049174;28;20108;-74
2022/09/15 06:38:47;;;;;;;11.15;7.20;;;;;;;20.79;77.69;100102.13;5049148;28;20047;-78
2022/09/15 06:41:13;;;;;;;7.75;6.93;;;;;;;21.02;75.97;100107.09;5049268;28;20506;-74
2022/09/15 06:43:40;;;;;;;7.82;6.25;;;;;;;21.10;74.72;100105.25;5049785;28;20029;-78
2022/09/15 06:46:21;;;;;;;9.02;6.25;;;;;;;21.22;75.22;100112.13;5052048;28;20133;-74
2022/09/15 06:48:47;;;;;;;8.05;6.47;;;;;;;21.47;72.98;100103.88;5034880;28;20055;-78
2022/09/15 06:51:14;;;;;;;8.38;6.57;;;;;;;21.52;72.71;100107.34;5053052;28;20056;-75
2022/09/15 08:29:04;;;;;;;5.20;3.55;;;;;;;26.20;52.00;100076.16;5006471;28;20565;-78
2022/09/15 08:31:30;;;;;;;7.80;4.13;;;;;;;26.27;51.73;100072.38;5010660;28;20057;-75
2022/09/15 08:33:55;;;;;;;6.10;3.20;;;;;;;26.53;50.77;100081.19;5011594;28;20105;-77
2022/09/15 08:36:23;;;;;;;8.00;3.92;;;;;;;26.58;49.89;100054.53;5030355;28;20076;-78
2022/09/15 08:38:48;;;;;;;9.25;3.03;;;;;;;26.87;47.30;100047.38;5050857;28;20033;-76
2022/09/15 08:41:41;;;;;;;5.13;2.78;;;;;;;27.15;47.02;100075.44;5050025;28;20025;-76
2022/09/15 08:44:25;;;;;;;5.90;3.08;;;;;;;27.16;47.42;100082.47;5047869;28;20032;-78
2022/09/15 08:47:11;;;;;;;4.20;3.33;;;;;;;27.33;47.59;100074.75;5050474;28;20029;-76
2022/09/15 08:49:48;;;;;;;3.80;3.10;;;;;;;27.48;47.60;100067.13;5050681;28;20031;-78
2022/09/15 08:52:27;;;;;;;5.50;3.58;;;;;;;27.48;47.13;100065.34;5050258;28;20055;-77
2022/09/15 08:54:56;;;;;;;5.72;3.40;;;;;;;27.45;46.99;100062.81;5050767;28;20044;-77
2022/09/15 08:57:24;;;;;;;6.82;3.20;;;;;;;27.60;46.05;100063.97;5050630;28;20044;-79
2022/09/15 08:59:50;;;;;;;4.25;3.20;;;;;;;27.71;45.96;100059.09;5050609;28;20435;-76
2022/09/15 09:02:45;;;;;;;4.90;3.20;;;;;;;27.74;45.46;100052.81;5050427;28;20036;-78
2022/09/15 09:05:10;;;;;;;3.97;3.50;;;;;;;27.59;44.69;99994.19;5050529;28;20021;-78
2022/09/15 09:08:01;;;;;;;3.45;2.70;;;;;;;27.92;43.52;100036.13;5050077;28;20110;-76
2022/09/15 09:10:53;;;;;;;4.68;3.30;;;;;;;27.93;44.09;100016.63;5050020;28;20032;-79
2022/09/15 09:13:44;;;;;;;4.50;3.17;;;;;;;28.24;44.06;100049.00;5045848;28;20072;-76
2022/09/15 09:16:32;;;;;;;4.05;3.10;;;;;;;28.33;43.14;100034.44;5030825;28;20061;-76
2022/09/15 09:19:16;;;;;;;9.32;3.25;;;;;;;28.45;43.32;100033.03;5030778;28;20033;-76
2022/09/15 09:21:53;;;;;;;7.05;4.38;;;;;;;28.53;42.07;100031.75;5013222;28;20029;-73
2022/09/15 09:24:40;;;;;;;4.90;2.80;;;;;;;28.60;41.29;100034.13;5030820;28;20025;-73
2022/09/15 09:27:12;;;;;;;7.63;2.92;;;;;;;28.54;41.75;100033.47;5030804;28;20572;-76
2022/09/15 09:29:52;;;;;;;9.35;3.15;;;;;;;28.84;41.03;100019.75;5030578;28;20052;-74
2022/09/15 09:32:29;;;;;;;5.28;2.90;;;;;;;28.83;41.88;99994.13;5030382;28;20486;-74
2022/09/15 09:35:04;;;;;;;6.18;2.83;;;;;;;29.11;41.58;100011.44;5030843;28;20124;-76
2022/09/15 09:37:29;;;;;;;6.82;2.92;;;;;;;29.01;41.46;99983.56;5030630;28;20025;-73
2022/09/15 09:39:55;;;;;;;5.28;2.67;;;;;;;29.35;41.47;99997.94;5030812;28;20044;-80
2022/09/15 09:42:27;;;;;;;4.40;2.80;;;;;;;29.57;40.12;100005.69;5030625;28;20101;-75
2022/09/15 09:44:52;;;;;;;6.88;2.80;;;;;;;29.59;40.17;100000.31;5030745;28;20056;-74
2022/09/15 09:47:19;;;;;;;3.30;2.80;;;;;;;29.59;40.48;99984.34;5030699;28;20452;-73
2022/09/15 09:49:47;;;;;;;7.15;2.85;;;;;;;29.77;37.75;99996.72;5030710;28;20027;-74
2022/09/15 09:52:13;;;;;;;7.35;2.67;;;;;;;29.92;37.31;99986.25;5030735;28;20037;-75
2022/09/15 09:54:38;;;;;;;5.63;2.97;;;;;;;30.09;38.19;99993.38;5030491;28;20025;-75
2022/09/15 09:57:13;;;;;;;3.53;2.60;;;;;;;30.26;37.60;99990.69;5030463;28;20049;-78
2022/09/15 09:59:40;;;;;;;3.67;2.80;;;;;;;30.39;38.06;99990.03;5030361;28;20111;-75
2022/09/15 10:02:23;;;;;;;6.32;2.97;;;;;;;30.52;38.01;99984.94;5030326;28;20653;-80
2022/09/15 10:04:50;;;;;;;6.88;2.90;;;;;;;30.68;37.92;99968.97;5030130;28;20475;-76
2022/09/15 10:07:19;;;;;;;5.40;3.13;;;;;;;30.60;37.77;99943.59;5012229;28;20022;-76
2022/09/15 10:09:51;;;;;;;6.95;3.42;;;;;;;30.94;38.20;99979.06;5029646;28;20033;-78
2022/09/15 10:12:25;;;;;;;6.05;2.72;;;;;;;30.96;37.05;99957.63;5029618;28;20033;-74
2022/09/15 10:14:56;;;;;;;4.55;2.60;;;;;;;31.03;36.73;99964.34;5029809;28;20442;-75
2022/09/15 10:17:47;;;;;;;8.05;2.88;;;;;;;31.03;36.59;99964.34;5027181;28;20441;-78
2022/09/15 10:20:31;;;;;;;7.00;2.85;;;;;;;31.01;36.85;99933.38;5029945;28;20124;-79
2022/09/15 10:23:22;;;;;;;20.75;3.75;;;;;;;31.23;36.22;99963.22;5016091;28;20403;-77
2022/09/15 10:25:48;;;;;;;5.80;2.60;;;;;;;31.34;35.38;99956.41;5034088;28;20120;-79
2022/09/15 10:28:16;;;;;;;4.70;2.72;;;;;;;31.58;34.64;99952.31;5034107;28;20555;-79
2022/09/15 10:31:00;;;;;;;7.00;2.57;;;;;;;31.58;35.35;99954.97;5034271;28;20025;-76
2022/09/15 10:33:29;;;;;;;5.05;3.13;;;;;;;31.56;35.44;99946.19;5030075;28;20443;-77
2022/09/15 10:36:01;;;;;;;4.72;2.50;;;;;;;31.68;35.60;99943.75;5022272;28;20029;-79
2022/09/15 10:38:42;;;;;;;8.05;2.92;;;;;;;31.70;35.04;99948.09;5033225;28;20029;-76
2022/09/15 10:41:25;;;;;;;6.60;2.72;;;;;;;31.82;34.68;99940.28;5037700;28;20112;-80
2022/09/15 10:44:13;;;;;;;6.22;2.45;;;;;;;32.05;34.95;99944.22;5025834;28;20030;-75
2022/09/15 10:46:54;;;;;;;2.97;2.40;;;;;;;32.03;34.61;99922.09;5023986;28;20121;-70
2022/09/15 10:49:50;;;;;;;4.95;2.50;;;;;;;32.29;34.51;99931.19;5037871;28;20033;-74
2022/09/15 10:52:40;;;;;;;4.35;2.13;;;;;;;32.28;33.47;99924.13;5046643;28;20045;-72
2022/09/15 10:55:19;;;;;;;3.92;2.40;;;;;;;32.53;32.54;99930.59;5052169;28;20491;-74
2022/09/15 10:58:03;;;;;;;4.40;2.40;;;;;;;32.64;33.18;99928.09;5052345;28;20083;-75
2022/09/15 11:00:58;;;;;;;8.77;2.90;;;;;;;32.61;33.38;99914.91;5028250;28;20113;-74
2022/09/15 11:03:45;;;;;;;5.72;2.38;;;;;;;32.66;33.15;99910.16;5022119;28;20495;-80
2022/09/15 11:06:24;;;;;;;4.85;2.97;;;;;;;32.68;32.94;99899.38;5006264;28;20083;-83
2022/09/15 11:09:04;;;;;;;4.43;2.50;;;;;;;32.83;33.51;99900.22;5024682;28;20037;-81
2022/09/15 11:11:33;;;;;;;4.55;2.72;;;;;;;32.91;32.06;99881.81;5000745;28;20087;-75
2022/09/15 11:14:19;;;;;;;3.60;2.10;;;;;;;33.15;31.92;99892.72;5012093;28;20042;-75
2022/09/15 11:17:09;;;;;;;7.32;2.58;;;;;;;33.19;32.02;99896.06;5012196;28;20053;-74
2022/09/15 11:20:04;;;;;;;9.55;2.72;;;;;;;33.18;32.23;99889.00;5011287;28;20033;-79
2022/09/15 11:22:35;;;;;;;3.83;2.40;;;;;;;33.13;31.85;99859.03;4931808;29;20570;-71
2022/09/15 11:25:12;;;;;;;3.70;2.53;;;;;;;33.27;31.76;99866.09;4932827;29;20039;-77
2022/09/15 11:28:10;;;;;;;6.95;2.40;;;;;;;33.21;31.49;99860.22;4936567;29;20078;-77
2022/09/15 11:30:45;;;;;;;6.70;2.85;;;;;;;33.41;31.13;99876.78;4863493;29;20045;-75
2022/09/15 11:33:27;;;;;;;4.63;2.53;;;;;;;33.30;30.08;99839.16;4865439;29;20464;-77
2022/09/15 11:36:23;;;;;;;6.93;2.30;;;;;;;33.65;29.88;99868.00;4863343;29;20041;-71
2022/09/15 11:38:58;;;;;;;6.57;2.45;;;;;;;33.78;29.96;99859.97;4857896;29;20121;-79
2022/09/15 11:41:35;;;;;;;7.00;2.35;;;;;;;33.77;30.11;99847.53;4858807;29;20056;-76
2022/09/15 11:44:19;;;;;;;6.63;2.58;;;;;;;33.98;30.52;99850.56;4856571;29;20170;-73
2022/09/15 11:47:03;;;;;;;6.88;2.03;;;;;;;34.09;29.71;99844.44;4856314;29;20077;-75
2022/09/15 11:50:04;;;;;;;4.05;2.30;;;;;;;34.12;29.59;99839.72;4857960;29;20037;-70
2022/09/15 11:52:45;;;;;;;7.55;2.80;;;;;;;34.10;29.87;99836.28;4856822;29;20041;-73
2022/09/15 11:55:44;;;;;;;5.95;2.35;;;;;;;34.20;29.29;99833.78;4857876;29;20627;-78
2022/09/15 11:58:24;;;;;;;4.32;2.42;;;;;;;34.15;28.96;99817.22;4873214;29;20039;-74
2022/09/15 12:01:07;;;;;;;5.05;2.35;;;;;;;34.01;29.58;99778.88;4927270;29;20165;-82
2022/09/15 12:03:44;;;;;;;6.38;2.40;;;;;;;34.23;29.40;99800.56;4929352;29;20055;-78
2022/09/15 12:06:19;;;;;;;9.63;2.80;;;;;;;34.29;28.71;99805.47;4926696;29;20035;-79
2022/09/15 12:09:20;;;;;;;6.03;2.33;;;;;;;34.14;28.59;99786.03;5030638;28;20450;-81
2022/09/15 12:11:53;;;;;;;8.27;2.30;;;;;;;34.14;29.13;99799.41;4944607;28;20035;-76
2022/09/15 12:14:28;;;;;;;6.97;2.60;;;;;;;34.10;28.38;99777.34;4945376;29;20038;-77
2022/09/15 12:16:54;;;;;;;9.63;2.42;;;;;;;34.30;28.49;99802.69;4944695;29;20186;-77
2022/09/15 12:19:35;;;;;;;6.40;2.70;;;;;;;34.28;28.72;99812.69;4926417;29;20123;-77
2022/09/15 12:22:13;;;;;;;4.70;2.05;;;;;;;34.27;28.39;99792.19;4930229;28;20034;-79
2022/09/15 12:24:49;;;;;;;8.00;2.85;;;;;;;34.29;28.22;99805.47;4932790;29;20445;-75
2022/09/15 12:27:17;;;;;;;8.85;2.53;;;;;;;34.39;27.52;99793.13;4949208;28;20054;-80
2022/09/15 12:29:48;;;;;;;4.97;2.35;;;;;;;34.25;28.31;99769.19;4962167;28;20028;-70
2022/09/15 12:32:33;;;;;;;6.82;2.63;;;;;;;34.40;27.32;99775.25;4949827;29;20186;-72
2022/09/15 12:35:19;;;;;;;7.68;2.38;;;;;;;34.51;27.38;99786.03;4949854;29;20038;-77
2022/09/15 12:37:51;;;;;;;4.45;2.00;;;;;;;34.48;26.73;99757.63;4948445;29;20495;-77
2022/09/15 12:40:37;;;;;;;6.95;2.38;;;;;;;34.67;27.09;99778.53;4933792;29;20465;-76
2022/09/15 12:43:12;;;;;;;8.10;2.53;;;;;;;34.66;26.67;99776.81;4948849;28;20069;-81
2022/09/15 12:45:40;;;;;;;8.73;2.70;;;;;;;34.68;27.44;99779.38;4985465;28;20033;-76
2022/09/15 12:48:24;;;;;;;5.20;2.40;;;;;;;34.66;27.55;99763.41;5029244;28;20029;-80
2022/09/15 12:50:57;;;;;;;4.95;2.22;;;;;;;34.75;27.69;99775.28;5010427;28;20308;-77
2022/09/15 12:53:30;;;;;;;7.57;2.78;;;;;;;34.65;27.34;99774.25;5005693;28;20475;-78
2022/09/15 12:56:02;;;;;;;6.03;2.30;;;;;;;34.54;27.49;99779.59;5010633;28;20128;-74
2022/09/15 12:58:48;;;;;;;7.90;2.60;;;;;;;34.42;27.68;99775.97;5027053;28;20018;-75
2022/09/15 13:01:25;;;;;;;7.10;2.75;;;;;;;34.30;27.77;99781.25;5028141;28;20395;-74
2022/09/15 13:03:54;;;;;;;4.72;2.42;;;;;;;34.28;27.81;99774.28;5011313;28;20108;-73
2022/09/15 13:06:28;;;;;;;5.43;2.15;;;;;;;34.23;27.89;99761.22;5029288;28;20036;-78
2022/09/15 13:09:05;;;;;;;5.45;2.10;;;;;;;34.23;28.24;99769.25;5028802;28;20056;-75
2022/09/15 13:11:35;;;;;;;4.40;2.08;;;;;;;34.09;28.86;99746.19;5028827;28;20033;-73
2022/09/15 13:14:06;;;;;;;10.38;2.38;;;;;;;34.27;28.59;99765.41;5028952;28;20037;-76
2022/09/15 13:16:47;;;;;;;5.13;2.45;;;;;;;34.28;28.64;99766.25;5026393;28;20036;-73
2022/09/15 13:19:19;;;;;;;3.92;2.20;;;;;;;34.30;29.12;99754.44;5027003;28;20905;-73
2022/09/15 13:22:11;;;;;;;8.30;2.75;;;;;;;34.18;28.28;99733.94;5029286;28;20083;-76
2022/09/15 13:24:54;;;;;;;5.20;2.65;;;;;;;34.31;29.10;99741.94;4912746;29;20048;-71
2022/09/15 13:27:24;;;;;;;6.38;2.40;;;;;;;34.35;29.06;99741.59;4929085;29;20119;-71